sensor_id;sensor_type;location;lat;lon;timestamp;P1;durP1;ratioP1;P2;durP2;ratioP2
17251;SDS011;8742;51.716;8.790;2023-08-12T00:00:47;6.23;;;2.70;;
17251;SDS011;8742;51.716;8.790;2023-08-12T00:03:14;3.70;;;2.87;;
17251;SDS011;8742;51.716;8.790;2023-08-12T00:05:40;3.00;;;2.30;;
17251;SDS011;8742;51.716;8.790;2023-08-12T00:08:08;3.53;;;2.63;;
17251;SDS011;8742;51.716;8.790;2023-08-12T00:10:36;4.93;;;2.73;;
17251;SDS011;8742;51.716;8.790;2023-08-12T00:13:03;3.90;;;2.70;;
17251;SDS011;8742;51.716;8.790;2023-08-12T00:15:30;9.60;;;3.07;;
17251;SDS011;8742;51.716;8.790;2023-08-12T00:17:57;7.17;;;2.90;;
17251;SDS011;8742;51.716;8.790;2023-08-12T00:20:23;4.30;;;2.60;;
17251;SDS011;8742;51.716;8.790;2023-08-12T00:22:50;5.63;;;3.00;;
17251;SDS011;8742;51.716;8.790;2023-08-12T00:25:17;3.77;;;3.10;;
17251;SDS011;8742;51.716;8.790;2023-08-12T00:27:45;5.00;;;3.00;;
17251;SDS011;8742;51.716;8.790;2023-08-12T00:30:12;5.13;;;3.07;;
17251;SDS011;8742;51.716;8.790;2023-08-12T00:32:39;5.77;;;3.20;;
17251;SDS011;8742;51.716;8.790;2023-08-12T00:35:07;4.83;;;3.30;;
17251;SDS011;8742;51.716;8.790;2023-08-12T00:37:34;4.33;;;2.40;;
17251;SDS011;8742;51.716;8.790;2023-08-12T00:40:01;5.33;;;3.13;;
17251;SDS011;8742;51.716;8.790;2023-08-12T00:42:28;8.63;;;2.97;;
17251;SDS011;8742;51.716;8.790;2023-08-12T00:44:57;4.07;;;2.50;;
17251;SDS011;8742;51.716;8.790;2023-08-12T00:47:23;7.23;;;2.97;;
17251;SDS011;8742;51.716;8.790;2023-08-12T00:49:51;6.10;;;2.95;;
17251;SDS011;8742;51.716;8.790;2023-08-12T00:52:18;5.40;;;2.93;;
17251;SDS011;8742;51.716;8.790;2023-08-12T00:54:45;4.53;;;3.45;;
17251;SDS011;8742;51.716;8.790;2023-08-12T00:57:12;4.32;;;3.28;;
17251;SDS011;8742;51.716;8.790;2023-08-12T00:59:38;7.55;;;3.20;;
17251;SDS011;8742;51.716;8.790;2023-08-12T01:02:09;3.95;;;3.38;;
17251;SDS011;8742;51.716;8.790;2023-08-12T01:04:37;10.52;;;4.07;;
17251;SDS011;8742;51.716;8.790;2023-08-12T01:07:05;7.10;;;4.63;;
17251;SDS011;8742;51.716;8.790;2023-08-12T01:09:32;13.50;;;5.07;;
17251;SDS011;8742;51.716;8.790;2023-08-12T01:12:01;9.63;;;5.07;;
17251;SDS011;8742;51.716;8.790;2023-08-12T01:14:34;11.20;;;5.70;;
17251;SDS011;8742;51.716;8.790;2023-08-12T01:17:07;12.13;;;6.50;;
17251;SDS011;8742;51.716;8.790;2023-08-12T01:19:38;10.93;;;5.13;;
17251;SDS011;8742;51.716;8.790;2023-08-12T01:22:08;12.57;;;5.97;;
17251;SDS011;8742;51.716;8.790;2023-08-12T01:24:37;17.17;;;6.13;;
17251;SDS011;8742;51.716;8.790;2023-08-12T01:27:06;15.40;;;6.33;;
17251;SDS011;8742;51.716;8.790;2023-08-12T01:29:37;7.95;;;5.93;;
17251;SDS011;8742;51.716;8.790;2023-08-12T01:32:07;19.27;;;6.37;;
17251;SDS011;8742;51.716;8.790;2023-08-12T01:34:42;15.23;;;7.30;;
17251;SDS011;8742;51.716;8.790;2023-08-12T01:37:14;18.40;;;5.90;;
17251;SDS011;8742;51.716;8.790;2023-08-12T01:39:49;8.80;;;6.37;;
17251;SDS011;8742;51.716;8.790;2023-08-12T01:42:18;13.20;;;6.60;;
17251;SDS011;8742;51.716;8.790;2023-08-12T01:44:45;11.40;;;6.77;;
17251;SDS011;8742;51.716;8.790;2023-08-12T01:47:13;15.73;;;6.60;;
17251;SDS011;8742;51.716;8.790;2023-08-12T01:49:39;11.73;;;7.20;;
17251;SDS011;8742;51.716;8.790;2023-08-12T01:52:06;15.30;;;7.30;;
17251;SDS011;8742;51.716;8.790;2023-08-12T01:54:33;12.83;;;7.10;;
17251;SDS011;8742;51.716;8.790;2023-08-12T01:57:02;19.03;;;8.20;;
17251;SDS011;8742;51.716;8.790;2023-08-12T01:59:30;14.40;;;8.57;;
17251;SDS011;8742;51.716;8.790;2023-08-12T02:01:58;18.27;;;8.30;;
17251;SDS011;8742;51.716;8.790;2023-08-12T02:04:25;17.43;;;9.60;;
17251;SDS011;8742;51.716;8.790;2023-08-12T02:06:52;18.40;;;8.80;;
17251;SDS011;8742;51.716;8.790;2023-08-12T02:09:19;17.57;;;8.90;;
17251;SDS011;8742;51.716;8.790;2023-08-12T02:11:46;20.93;;;9.77;;
17251;SDS011;8742;51.716;8.790;2023-08-12T02:14:15;21.47;;;9.93;;
17251;SDS011;8742;51.716;8.790;2023-08-12T02:16:41;19.13;;;10.83;;
17251;SDS011;8742;51.716;8.790;2023-08-12T02:19:08;17.53;;;10.53;;
17251;SDS011;8742;51.716;8.790;2023-08-12T02:21:35;25.00;;;10.77;;
17251;SDS011;8742;51.716;8.790;2023-08-12T02:24:02;21.63;;;11.33;;
17251;SDS011;8742;51.716;8.790;2023-08-12T02:26:29;24.73;;;12.07;;
17251;SDS011;8742;51.716;8.790;2023-08-12T02:28:56;20.50;;;12.23;;
17251;SDS011;8742;51.716;8.790;2023-08-12T02:31:24;19.97;;;12.27;;
17251;SDS011;8742;51.716;8.790;2023-08-12T02:33:51;21.70;;;13.20;;
17251;SDS011;8742;51.716;8.790;2023-08-12T02:36:18;25.43;;;13.73;;
17251;SDS011;8742;51.716;8.790;2023-08-12T02:38:45;23.17;;;12.97;;
17251;SDS011;8742;51.716;8.790;2023-08-12T02:41:12;27.53;;;15.37;;
17251;SDS011;8742;51.716;8.790;2023-08-12T02:43:38;27.43;;;13.83;;
17251;SDS011;8742;51.716;8.790;2023-08-12T02:46:05;25.47;;;14.40;;
17251;SDS011;8742;51.716;8.790;2023-08-12T02:48:34;29.67;;;16.10;;
17251;SDS011;8742;51.716;8.790;2023-08-12T02:51:02;32.30;;;17.10;;
17251;SDS011;8742;51.716;8.790;2023-08-12T02:53:29;34.43;;;16.10;;
17251;SDS011;8742;51.716;8.790;2023-08-12T02:55:55;31.50;;;16.93;;
17251;SDS011;8742;51.716;8.790;2023-08-12T02:58:22;40.90;;;18.63;;
17251;SDS011;8742;51.716;8.790;2023-08-12T03:00:49;29.27;;;17.50;;
17251;SDS011;8742;51.716;8.790;2023-08-12T03:03:16;30.83;;;19.00;;
17251;SDS011;8742;51.716;8.790;2023-08-12T03:05:46;31.73;;;18.57;;
17251;SDS011;8742;51.716;8.790;2023-08-12T03:08:13;36.87;;;19.13;;
17251;SDS011;8742;51.716;8.790;2023-08-12T03:10:40;28.60;;;19.50;;
17251;SDS011;8742;51.716;8.790;2023-08-12T03:13:07;35.23;;;20.23;;
17251;SDS011;8742;51.716;8.790;2023-08-12T03:15:34;34.90;;;20.43;;
17251;SDS011;8742;51.716;8.790;2023-08-12T03:18:04;36.13;;;21.07;;
17251;SDS011;8742;51.716;8.790;2023-08-12T03:20:31;39.13;;;22.77;;
17251;SDS011;8742;51.716;8.790;2023-08-12T03:22:59;34.17;;;20.80;;
17251;SDS011;8742;51.716;8.790;2023-08-12T03:25:26;38.60;;;23.27;;
17251;SDS011;8742;51.716;8.790;2023-08-12T03:27:53;37.80;;;24.57;;
17251;SDS011;8742;51.716;8.790;2023-08-12T03:30:20;45.37;;;24.10;;
17251;SDS011;8742;51.716;8.790;2023-08-12T03:32:46;42.37;;;24.27;;
17251;SDS011;8742;51.716;8.790;2023-08-12T03:35:13;39.40;;;24.03;;
17251;SDS011;8742;51.716;8.790;2023-08-12T03:37:40;37.57;;;23.73;;
17251;SDS011;8742;51.716;8.790;2023-08-12T03:40:09;35.03;;;24.33;;
17251;SDS011;8742;51.716;8.790;2023-08-12T03:42:36;46.53;;;25.37;;
17251;SDS011;8742;51.716;8.790;2023-08-12T03:45:03;38.83;;;24.07;;
17251;SDS011;8742;51.716;8.790;2023-08-12T03:47:31;41.27;;;25.47;;
17251;SDS011;8742;51.716;8.790;2023-08-12T03:49:58;42.03;;;25.07;;
17251;SDS011;8742;51.716;8.790;2023-08-12T03:52:24;45.20;;;26.57;;
17251;SDS011;8742;51.716;8.790;2023-08-12T03:54:51;43.83;;;26.90;;
17251;SDS011;8742;51.716;8.790;2023-08-12T03:57:21;42.77;;;28.50;;
17251;SDS011;8742;51.716;8.790;2023-08-12T03:59:50;43.67;;;27.27;;
17251;SDS011;8742;51.716;8.790;2023-08-12T04:02:18;43.37;;;27.77;;
17251;SDS011;8742;51.716;8.790;2023-08-12T04:04:45;51.27;;;29.67;;
17251;SDS011;8742;51.716;8.790;2023-08-12T04:07:21;55.70;;;28.47;;
17251;SDS011;8742;51.716;8.790;2023-08-12T04:09:49;45.67;;;29.03;;
17251;SDS011;8742;51.716;8.790;2023-08-12T04:12:16;48.70;;;30.17;;
17251;SDS011;8742;51.716;8.790;2023-08-12T04:14:44;44.57;;;28.10;;
17251;SDS011;8742;51.716;8.790;2023-08-12T04:17:12;49.10;;;28.43;;
17251;SDS011;8742;51.716;8.790;2023-08-12T04:19:39;55.33;;;32.67;;
17251;SDS011;8742;51.716;8.790;2023-08-12T04:22:05;49.13;;;30.10;;
17251;SDS011;8742;51.716;8.790;2023-08-12T04:24:32;50.43;;;30.90;;
17251;SDS011;8742;51.716;8.790;2023-08-12T04:26:59;52.20;;;33.83;;
17251;SDS011;8742;51.716;8.790;2023-08-12T04:29:26;59.90;;;34.30;;
17251;SDS011;8742;51.716;8.790;2023-08-12T04:31:54;64.40;;;37.10;;
17251;SDS011;8742;51.716;8.790;2023-08-12T04:34:21;62.30;;;38.27;;
17251;SDS011;8742;51.716;8.790;2023-08-12T04:36:48;52.77;;;33.23;;
17251;SDS011;8742;51.716;8.790;2023-08-12T04:39:15;47.50;;;31.87;;
17251;SDS011;8742;51.716;8.790;2023-08-12T04:41:42;47.37;;;31.50;;
17251;SDS011;8742;51.716;8.790;2023-08-12T04:44:09;54.70;;;32.63;;
17251;SDS011;8742;51.716;8.790;2023-08-12T04:46:41;52.70;;;34.70;;
17251;SDS011;8742;51.716;8.790;2023-08-12T04:49:23;52.87;;;35.00;;
17251;SDS011;8742;51.716;8.790;2023-08-12T04:51:51;59.97;;;34.70;;
17251;SDS011;8742;51.716;8.790;2023-08-12T04:54:18;51.53;;;34.23;;
17251;SDS011;8742;51.716;8.790;2023-08-12T04:56:45;60.10;;;35.07;;
17251;SDS011;8742;51.716;8.790;2023-08-12T04:59:17;62.80;;;36.17;;
17251;SDS011;8742;51.716;8.790;2023-08-12T05:01:44;61.30;;;39.63;;
17251;SDS011;8742;51.716;8.790;2023-08-12T05:04:13;59.93;;;37.07;;
17251;SDS011;8742;51.716;8.790;2023-08-12T05:06:51;63.60;;;39.70;;
17251;SDS011;8742;51.716;8.790;2023-08-12T05:09:18;53.80;;;37.07;;
17251;SDS011;8742;51.716;8.790;2023-08-12T05:11:46;59.37;;;38.93;;
17251;SDS011;8742;51.716;8.790;2023-08-12T05:14:16;59.80;;;36.60;;
17251;SDS011;8742;51.716;8.790;2023-08-12T05:16:56;59.33;;;37.93;;
17251;SDS011;8742;51.716;8.790;2023-08-12T05:19:25;61.43;;;39.03;;
17251;SDS011;8742;51.716;8.790;2023-08-12T05:22:01;63.90;;;39.73;;
17251;SDS011;8742;51.716;8.790;2023-08-12T05:24:28;59.50;;;38.40;;
17251;SDS011;8742;51.716;8.790;2023-08-12T05:26:55;61.93;;;37.93;;
17251;SDS011;8742;51.716;8.790;2023-08-12T05:29:22;52.10;;;37.43;;
17251;SDS011;8742;51.716;8.790;2023-08-12T05:31:49;54.47;;;35.13;;
17251;SDS011;8742;51.716;8.790;2023-08-12T05:34:16;51.83;;;34.90;;
17251;SDS011;8742;51.716;8.790;2023-08-12T05:36:48;53.83;;;35.63;;
17251;SDS011;8742;51.716;8.790;2023-08-12T05:39:17;53.87;;;35.07;;
17251;SDS011;8742;51.716;8.790;2023-08-12T05:41:44;52.43;;;35.10;;
17251;SDS011;8742;51.716;8.790;2023-08-12T05:44:11;53.83;;;37.13;;
17251;SDS011;8742;51.716;8.790;2023-08-12T05:46:40;54.70;;;35.40;;
17251;SDS011;8742;51.716;8.790;2023-08-12T05:49:11;50.23;;;36.77;;
17251;SDS011;8742;51.716;8.790;2023-08-12T05:51:43;52.30;;;36.00;;
17251;SDS011;8742;51.716;8.790;2023-08-12T05:54:14;47.40;;;32.67;;
17251;SDS011;8742;51.716;8.790;2023-08-12T05:56:42;54.93;;;34.03;;
17251;SDS011;8742;51.716;8.790;2023-08-12T05:59:11;45.70;;;31.77;;
17251;SDS011;8742;51.716;8.790;2023-08-12T06:01:38;41.40;;;28.03;;
17251;SDS011;8742;51.716;8.790;2023-08-12T06:04:05;35.63;;;27.50;;
17251;SDS011;8742;51.716;8.790;2023-08-12T06:06:32;40.67;;;28.20;;
17251;SDS011;8742;51.716;8.790;2023-08-12T06:08:59;36.83;;;27.53;;
17251;SDS011;8742;51.716;8.790;2023-08-12T06:11:26;38.83;;;25.47;;
17251;SDS011;8742;51.716;8.790;2023-08-12T06:13:54;33.13;;;23.43;;
17251;SDS011;8742;51.716;8.790;2023-08-12T06:16:21;36.57;;;22.17;;
17251;SDS011;8742;51.716;8.790;2023-08-12T06:18:47;33.43;;;21.77;;
17251;SDS011;8742;51.716;8.790;2023-08-12T06:21:15;29.37;;;21.70;;
17251;SDS011;8742;51.716;8.790;2023-08-12T06:23:44;29.07;;;21.17;;
17251;SDS011;8742;51.716;8.790;2023-08-12T06:26:18;33.90;;;20.60;;
17251;SDS011;8742;51.716;8.790;2023-08-12T06:28:48;31.67;;;22.97;;
17251;SDS011;8742;51.716;8.790;2023-08-12T06:31:19;34.30;;;22.20;;
17251;SDS011;8742;51.716;8.790;2023-08-12T06:33:46;26.90;;;19.60;;
17251;SDS011;8742;51.716;8.790;2023-08-12T06:36:13;28.00;;;18.97;;
17251;SDS011;8742;51.716;8.790;2023-08-12T06:38:39;28.53;;;19.77;;
17251;SDS011;8742;51.716;8.790;2023-08-12T06:41:06;24.37;;;17.63;;
17251;SDS011;8742;51.716;8.790;2023-08-12T06:43:33;22.87;;;15.67;;
17251;SDS011;8742;51.716;8.790;2023-08-12T06:46:00;28.90;;;18.10;;
17251;SDS011;8742;51.716;8.790;2023-08-12T06:48:28;20.47;;;14.20;;
17251;SDS011;8742;51.716;8.790;2023-08-12T06:50:55;24.33;;;13.93;;
17251;SDS011;8742;51.716;8.790;2023-08-12T06:53:22;21.60;;;14.00;;
17251;SDS011;8742;51.716;8.790;2023-08-12T06:55:51;17.80;;;13.67;;
17251;SDS011;8742;51.716;8.790;2023-08-12T06:58:18;20.43;;;13.60;;
17251;SDS011;8742;51.716;8.790;2023-08-12T07:00:44;19.27;;;14.47;;
17251;SDS011;8742;51.716;8.790;2023-08-12T07:03:11;17.20;;;13.53;;
17251;SDS011;8742;51.716;8.790;2023-08-12T07:05:39;15.73;;;13.13;;
17251;SDS011;8742;51.716;8.790;2023-08-12T07:08:06;21.20;;;13.67;;
17251;SDS011;8742;51.716;8.790;2023-08-12T07:10:33;16.67;;;12.97;;
17251;SDS011;8742;51.716;8.790;2023-08-12T07:13:08;16.20;;;12.63;;
17251;SDS011;8742;51.716;8.790;2023-08-12T07:15:35;18.80;;;13.50;;
17251;SDS011;8742;51.716;8.790;2023-08-12T07:18:02;17.10;;;12.87;;
17251;SDS011;8742;51.716;8.790;2023-08-12T07:20:29;18.83;;;13.47;;
17251;SDS011;8742;51.716;8.790;2023-08-12T07:22:57;17.33;;;13.30;;
17251;SDS011;8742;51.716;8.790;2023-08-12T07:25:24;17.83;;;13.83;;
17251;SDS011;8742;51.716;8.790;2023-08-12T07:27:50;21.07;;;14.23;;
17251;SDS011;8742;51.716;8.790;2023-08-12T07:30:17;20.20;;;14.43;;
17251;SDS011;8742;51.716;8.790;2023-08-12T07:32:44;20.87;;;14.80;;
17251;SDS011;8742;51.716;8.790;2023-08-12T07:35:11;19.03;;;15.17;;
17251;SDS011;8742;51.716;8.790;2023-08-12T07:37:40;18.57;;;13.57;;
17251;SDS011;8742;51.716;8.790;2023-08-12T07:40:09;16.27;;;14.03;;
17251;SDS011;8742;51.716;8.790;2023-08-12T07:42:37;18.27;;;12.97;;
17251;SDS011;8742;51.716;8.790;2023-08-12T07:45:05;18.67;;;12.33;;
17251;SDS011;8742;51.716;8.790;2023-08-12T07:47:34;15.07;;;12.23;;
17251;SDS011;8742;51.716;8.790;2023-08-12T07:50:00;14.73;;;11.93;;
17251;SDS011;8742;51.716;8.790;2023-08-12T07:52:28;18.52;;;10.85;;
17251;SDS011;8742;51.716;8.790;2023-08-12T07:54:55;12.77;;;9.95;;
17251;SDS011;8742;51.716;8.790;2023-08-12T07:57:23;15.15;;;10.68;;
17251;SDS011;8742;51.716;8.790;2023-08-12T07:59:50;12.50;;;9.00;;
17251;SDS011;8742;51.716;8.790;2023-08-12T08:02:17;8.00;;;7.20;;
17251;SDS011;8742;51.716;8.790;2023-08-12T08:04:44;8.88;;;7.50;;
17251;SDS011;8742;51.716;8.790;2023-08-12T08:07:14;6.82;;;6.07;;
17251;SDS011;8742;51.716;8.790;2023-08-12T08:09:41;6.60;;;5.13;;
17251;SDS011;8742;51.716;8.790;2023-08-12T08:12:08;7.55;;;5.35;;
17251;SDS011;8742;51.716;8.790;2023-08-12T08:14:36;6.00;;;4.30;;
17251;SDS011;8742;51.716;8.790;2023-08-12T08:17:03;5.88;;;4.90;;
17251;SDS011;8742;51.716;8.790;2023-08-12T08:19:30;4.93;;;4.45;;
17251;SDS011;8742;51.716;8.790;2023-08-12T08:21:57;5.47;;;4.28;;
17251;SDS011;8742;51.716;8.790;2023-08-12T08:24:24;4.45;;;4.03;;
17251;SDS011;8742;51.716;8.790;2023-08-12T08:26:51;5.18;;;4.60;;
17251;SDS011;8742;51.716;8.790;2023-08-12T08:29:18;6.45;;;5.25;;
17251;SDS011;8742;51.716;8.790;2023-08-12T08:31:46;5.20;;;4.45;;
17251;SDS011;8742;51.716;8.790;2023-08-12T08:34:12;6.20;;;4.65;;
17251;SDS011;8742;51.716;8.790;2023-08-12T08:36:39;9.25;;;4.40;;
17251;SDS011;8742;51.716;8.790;2023-08-12T08:39:06;5.63;;;4.28;;
17251;SDS011;8742;51.716;8.790;2023-08-12T08:41:33;4.28;;;3.75;;
17251;SDS011;8742;51.716;8.790;2023-08-12T08:44:06;4.30;;;3.90;;
17251;SDS011;8742;51.716;8.790;2023-08-12T08:46:34;5.18;;;4.40;;
17251;SDS011;8742;51.716;8.790;2023-08-12T08:49:02;6.07;;;4.30;;
17251;SDS011;8742;51.716;8.790;2023-08-12T08:51:32;5.13;;;4.10;;
17251;SDS011;8742;51.716;8.790;2023-08-12T08:53:59;6.50;;;4.57;;
17251;SDS011;8742;51.716;8.790;2023-08-12T08:56:29;6.17;;;4.17;;
17251;SDS011;8742;51.716;8.790;2023-08-12T08:58:57;5.65;;;4.20;;
17251;SDS011;8742;51.716;8.790;2023-08-12T09:01:23;4.10;;;3.70;;
17251;SDS011;8742;51.716;8.790;2023-08-12T09:03:51;7.60;;;4.22;;
17251;SDS011;8742;51.716;8.790;2023-08-12T09:06:20;6.82;;;4.65;;
17251;SDS011;8742;51.716;8.790;2023-08-12T09:08:49;6.72;;;3.90;;
17251;SDS011;8742;51.716;8.790;2023-08-12T09:11:18;4.45;;;4.05;;
17251;SDS011;8742;51.716;8.790;2023-08-12T09:13:45;6.28;;;4.18;;
17251;SDS011;8742;51.716;8.790;2023-08-12T09:16:13;4.05;;;3.65;;
17251;SDS011;8742;51.716;8.790;2023-08-12T09:18:41;5.25;;;3.67;;
17251;SDS011;8742;51.716;8.790;2023-08-12T09:21:09;5.15;;;4.10;;
17251;SDS011;8742;51.716;8.790;2023-08-12T09:23:38;5.25;;;3.65;;
17251;SDS011;8742;51.716;8.790;2023-08-12T09:26:11;3.60;;;3.30;;
17251;SDS011;8742;51.716;8.790;2023-08-12T09:28:40;3.65;;;3.25;;
17251;SDS011;8742;51.716;8.790;2023-08-12T09:31:07;3.67;;;3.38;;
17251;SDS011;8742;51.716;8.790;2023-08-12T09:33:47;3.75;;;3.35;;
17251;SDS011;8742;51.716;8.790;2023-08-12T09:36:14;3.80;;;3.17;;
17251;SDS011;8742;51.716;8.790;2023-08-12T09:38:43;3.55;;;2.80;;
17251;SDS011;8742;51.716;8.790;2023-08-12T09:41:10;3.83;;;2.88;;
17251;SDS011;8742;51.716;8.790;2023-08-12T09:43:39;5.22;;;2.55;;
17251;SDS011;8742;51.716;8.790;2023-08-12T09:46:10;3.25;;;2.40;;
17251;SDS011;8742;51.716;8.790;2023-08-12T09:48:38;2.55;;;2.35;;
17251;SDS011;8742;51.716;8.790;2023-08-12T09:51:05;3.00;;;2.13;;
17251;SDS011;8742;51.716;8.790;2023-08-12T09:53:32;2.72;;;2.50;;
17251;SDS011;8742;51.716;8.790;2023-08-12T09:56:03;3.13;;;2.53;;
17251;SDS011;8742;51.716;8.790;2023-08-12T09:58:33;3.15;;;2.83;;
17251;SDS011;8742;51.716;8.790;2023-08-12T10:01:02;3.53;;;3.03;;
17251;SDS011;8742;51.716;8.790;2023-08-12T10:03:29;8.65;;;2.88;;
17251;SDS011;8742;51.716;8.790;2023-08-12T10:05:57;3.00;;;2.75;;
17251;SDS011;8742;51.716;8.790;2023-08-12T10:08:24;2.88;;;2.67;;
17251;SDS011;8742;51.716;8.790;2023-08-12T10:10:52;4.70;;;2.28;;
17251;SDS011;8742;51.716;8.790;2023-08-12T10:13:21;2.92;;;2.28;;
17251;SDS011;8742;51.716;8.790;2023-08-12T10:15:49;2.85;;;2.25;;
17251;SDS011;8742;51.716;8.790;2023-08-12T10:18:18;2.30;;;2.10;;
17251;SDS011;8742;51.716;8.790;2023-08-12T10:21:00;3.17;;;2.15;;
17251;SDS011;8742;51.716;8.790;2023-08-12T10:23:31;1.95;;;1.85;;
17251;SDS011;8742;51.716;8.790;2023-08-12T10:25:58;3.00;;;1.90;;
17251;SDS011;8742;51.716;8.790;2023-08-12T10:28:35;2.00;;;1.80;;
17251;SDS011;8742;51.716;8.790;2023-08-12T10:31:03;2.30;;;1.80;;
17251;SDS011;8742;51.716;8.790;2023-08-12T10:33:34;1.95;;;1.50;;
17251;SDS011;8742;51.716;8.790;2023-08-12T10:36:02;2.00;;;1.80;;
17251;SDS011;8742;51.716;8.790;2023-08-12T10:38:30;2.97;;;1.90;;
17251;SDS011;8742;51.716;8.790;2023-08-12T10:43:52;0.98;;;0.98;;
17251;SDS011;8742;51.716;8.790;2023-08-12T10:46:21;2.03;;;1.60;;
17251;SDS011;8742;51.716;8.790;2023-08-12T10:49:04;1.48;;;1.38;;
17251;SDS011;8742;51.716;8.790;2023-08-12T10:51:39;1.40;;;1.30;;
17251;SDS011;8742;51.716;8.790;2023-08-12T10:54:13;5.07;;;1.40;;
17251;SDS011;8742;51.716;8.790;2023-08-12T10:59:53;4.90;;;0.95;;
17251;SDS011;8742;51.716;8.790;2023-08-12T11:02:21;1.13;;;1.08;;
17251;SDS011;8742;51.716;8.790;2023-08-12T11:04:54;0.95;;;0.95;;
17251;SDS011;8742;51.716;8.790;2023-08-12T11:07:27;1.20;;;1.10;;
17251;SDS011;8742;51.716;8.790;2023-08-12T11:09:58;2.00;;;1.45;;
17251;SDS011;8742;51.716;8.790;2023-08-12T11:12:30;1.75;;;1.30;;
17251;SDS011;8742;51.716;8.790;2023-08-12T11:15:00;1.30;;;1.10;;
17251;SDS011;8742;51.716;8.790;2023-08-12T11:17:29;1.50;;;1.15;;
17251;SDS011;8742;51.716;8.790;2023-08-12T11:19:59;1.40;;;1.30;;
17251;SDS011;8742;51.716;8.790;2023-08-12T11:22:26;0.90;;;0.90;;
17251;SDS011;8742;51.716;8.790;2023-08-12T11:24:53;1.35;;;1.25;;
17251;SDS011;8742;51.716;8.790;2023-08-12T11:27:21;0.95;;;0.90;;
17251;SDS011;8742;51.716;8.790;2023-08-12T11:29:49;1.67;;;0.93;;
17251;SDS011;8742;51.716;8.790;2023-08-12T11:32:18;1.90;;;0.93;;
17251;SDS011;8742;51.716;8.790;2023-08-12T11:34:46;1.58;;;0.73;;
17251;SDS011;8742;51.716;8.790;2023-08-12T11:37:13;0.68;;;0.68;;
17251;SDS011;8742;51.716;8.790;2023-08-12T11:39:40;1.42;;;0.80;;
17251;SDS011;8742;51.716;8.790;2023-08-12T11:42:47;0.90;;;0.90;;
17251;SDS011;8742;51.716;8.790;2023-08-12T11:45:16;0.47;;;0.47;;
17251;SDS011;8742;51.716;8.790;2023-08-12T11:47:45;1.13;;;0.90;;
17251;SDS011;8742;51.716;8.790;2023-08-12T11:50:23;1.02;;;0.90;;
17251;SDS011;8742;51.716;8.790;2023-08-12T11:52:51;0.77;;;0.70;;
17251;SDS011;8742;51.716;8.790;2023-08-12T11:55:33;1.30;;;1.20;;
17251;SDS011;8742;51.716;8.790;2023-08-12T11:58:00;1.65;;;1.20;;
17251;SDS011;8742;51.716;8.790;2023-08-12T12:00:27;1.80;;;1.25;;
17251;SDS011;8742;51.716;8.790;2023-08-12T12:02:55;1.35;;;1.25;;
17251;SDS011;8742;51.716;8.790;2023-08-12T12:05:23;1.67;;;1.58;;
17251;SDS011;8742;51.716;8.790;2023-08-12T12:07:59;1.92;;;1.10;;
17251;SDS011;8742;51.716;8.790;2023-08-12T12:10:27;1.33;;;1.23;;
17251;SDS011;8742;51.716;8.790;2023-08-12T12:13:01;1.50;;;1.40;;
17251;SDS011;8742;51.716;8.790;2023-08-12T12:18:29;1.10;;;1.10;;
17251;SDS011;8742;51.716;8.790;2023-08-12T12:20:56;1.73;;;1.30;;
17251;SDS011;8742;51.716;8.790;2023-08-12T12:23:27;1.63;;;1.40;;
17251;SDS011;8742;51.716;8.790;2023-08-12T12:25:56;1.73;;;1.40;;
17251;SDS011;8742;51.716;8.790;2023-08-12T12:28:32;2.50;;;1.40;;
17251;SDS011;8742;51.716;8.790;2023-08-12T12:31:23;1.27;;;1.25;;
17251;SDS011;8742;51.716;8.790;2023-08-12T12:33:52;1.38;;;1.27;;
17251;SDS011;8742;51.716;8.790;2023-08-12T12:36:18;0.90;;;0.90;;
17251;SDS011;8742;51.716;8.790;2023-08-12T12:38:45;2.63;;;1.35;;
17251;SDS011;8742;51.716;8.790;2023-08-12T12:41:12;1.40;;;1.30;;
17251;SDS011;8742;51.716;8.790;2023-08-12T12:43:39;2.90;;;1.13;;
17251;SDS011;8742;51.716;8.790;2023-08-12T12:46:06;1.33;;;1.20;;
17251;SDS011;8742;51.716;8.790;2023-08-12T12:48:33;1.88;;;1.27;;
17251;SDS011;8742;51.716;8.790;2023-08-12T12:51:02;1.10;;;1.10;;
17251;SDS011;8742;51.716;8.790;2023-08-12T12:53:29;1.98;;;1.42;;
17251;SDS011;8742;51.716;8.790;2023-08-12T12:55:56;1.10;;;1.10;;
17251;SDS011;8742;51.716;8.790;2023-08-12T12:58:28;1.75;;;1.33;;
17251;SDS011;8742;51.716;8.790;2023-08-12T13:01:02;2.75;;;1.17;;
17251;SDS011;8742;51.716;8.790;2023-08-12T13:03:30;1.33;;;1.23;;
17251;SDS011;8742;51.716;8.790;2023-08-12T13:05:57;1.05;;;1.02;;
17251;SDS011;8742;51.716;8.790;2023-08-12T13:08:28;1.48;;;1.20;;
17251;SDS011;8742;51.716;8.790;2023-08-12T13:10:55;1.20;;;1.20;;
17251;SDS011;8742;51.716;8.790;2023-08-12T13:13:22;1.92;;;1.00;;
17251;SDS011;8742;51.716;8.790;2023-08-12T13:15:50;2.38;;;1.15;;
17251;SDS011;8742;51.716;8.790;2023-08-12T13:18:17;1.45;;;1.00;;
17251;SDS011;8742;51.716;8.790;2023-08-12T13:20:44;2.58;;;1.17;;
17251;SDS011;8742;51.716;8.790;2023-08-12T13:23:11;3.50;;;1.50;;
17251;SDS011;8742;51.716;8.790;2023-08-12T13:25:40;2.00;;;1.08;;
17251;SDS011;8742;51.716;8.790;2023-08-12T13:28:16;3.28;;;1.35;;
17251;SDS011;8742;51.716;8.790;2023-08-12T13:30:43;0.90;;;0.90;;
17251;SDS011;8742;51.716;8.790;2023-08-12T13:33:10;1.40;;;1.10;;
17251;SDS011;8742;51.716;8.790;2023-08-12T13:35:37;1.27;;;1.17;;
17251;SDS011;8742;51.716;8.790;2023-08-12T13:38:04;1.42;;;1.33;;
17251;SDS011;8742;51.716;8.790;2023-08-12T13:40:31;1.70;;;1.02;;
17251;SDS011;8742;51.716;8.790;2023-08-12T13:42:59;6.32;;;1.20;;
17251;SDS011;8742;51.716;8.790;2023-08-12T13:45:26;1.98;;;1.00;;
17251;SDS011;8742;51.716;8.790;2023-08-12T13:47:53;4.07;;;1.30;;
17251;SDS011;8742;51.716;8.790;2023-08-12T13:50:20;1.50;;;1.38;;
17251;SDS011;8742;51.716;8.790;2023-08-12T13:52:48;1.92;;;1.38;;
17251;SDS011;8742;51.716;8.790;2023-08-12T13:55:30;1.25;;;1.25;;
17251;SDS011;8742;51.716;8.790;2023-08-12T13:58:00;1.80;;;1.23;;
17251;SDS011;8742;51.716;8.790;2023-08-12T14:00:27;1.88;;;1.70;;
17251;SDS011;8742;51.716;8.790;2023-08-12T14:02:54;3.40;;;2.10;;
17251;SDS011;8742;51.716;8.790;2023-08-12T14:05:21;2.22;;;2.10;;
17251;SDS011;8742;51.716;8.790;2023-08-12T14:07:47;4.65;;;2.72;;
17251;SDS011;8742;51.716;8.790;2023-08-12T14:10:14;5.68;;;2.20;;
17251;SDS011;8742;51.716;8.790;2023-08-12T14:12:41;3.55;;;2.45;;
17251;SDS011;8742;51.716;8.790;2023-08-12T14:15:10;3.30;;;2.63;;
17251;SDS011;8742;51.716;8.790;2023-08-12T14:17:37;2.75;;;2.55;;
17251;SDS011;8742;51.716;8.790;2023-08-12T14:20:04;3.80;;;2.22;;
17251;SDS011;8742;51.716;8.790;2023-08-12T14:22:33;2.45;;;2.25;;
17251;SDS011;8742;51.716;8.790;2023-08-12T14:24:59;2.50;;;2.33;;
17251;SDS011;8742;51.716;8.790;2023-08-12T14:27:26;4.60;;;2.80;;
17251;SDS011;8742;51.716;8.790;2023-08-12T14:29:53;4.18;;;2.40;;
17251;SDS011;8742;51.716;8.790;2023-08-12T14:32:21;3.10;;;2.40;;
17251;SDS011;8742;51.716;8.790;2023-08-12T14:34:48;2.50;;;2.30;;
17251;SDS011;8742;51.716;8.790;2023-08-12T14:37:15;2.55;;;2.35;;
17251;SDS011;8742;51.716;8.790;2023-08-12T14:39:41;4.07;;;2.45;;
17251;SDS011;8742;51.716;8.790;2023-08-12T14:42:08;4.90;;;2.47;;
17251;SDS011;8742;51.716;8.790;2023-08-12T14:44:36;2.60;;;2.33;;
17251;SDS011;8742;51.716;8.790;2023-08-12T14:47:03;4.43;;;2.95;;
17251;SDS011;8742;51.716;8.790;2023-08-12T14:49:32;5.45;;;2.50;;
17251;SDS011;8742;51.716;8.790;2023-08-12T14:52:01;3.72;;;2.40;;
17251;SDS011;8742;51.716;8.790;2023-08-12T14:54:28;5.63;;;2.87;;
17251;SDS011;8742;51.716;8.790;2023-08-12T14:56:55;3.87;;;1.93;;
17251;SDS011;8742;51.716;8.790;2023-08-12T14:59:22;14.50;;;3.07;;
17251;SDS011;8742;51.716;8.790;2023-08-12T15:01:49;9.90;;;2.57;;
17251;SDS011;8742;51.716;8.790;2023-08-12T15:04:16;2.03;;;1.57;;
17251;SDS011;8742;51.716;8.790;2023-08-12T15:06:44;1.13;;;1.03;;